sensor_id;sensor_type;location;lat;lon;timestamp;pressure;altitude;pressure_sealevel;temperature;humidity
13033;BME280;6583;42.632;23.298;2023-05-22T00:00:28;69903.31;;;-146.40;63.50
13033;BME280;6583;42.632;23.298;2023-05-22T00:02:56;69899.25;;;-146.40;64.47
13033;BME280;6583;42.632;23.298;2023-05-22T00:05:22;69905.31;;;-146.40;64.97
13033;BME280;6583;42.632;23.298;2023-05-22T00:07:49;69893.19;;;-146.40;67.23
13033;BME280;6583;42.632;23.298;2023-05-22T00:10:17;69905.31;;;-146.40;68.65
13033;BME280;6583;42.632;23.298;2023-05-22T00:12:44;69905.31;;;-146.40;70.47
13033;BME280;6583;42.632;23.298;2023-05-22T00:15:11;69905.31;;;-146.40;70.54
13033;BME280;6583;42.632;23.298;2023-05-22T00:17:37;69907.34;;;-146.40;71.48
13033;BME280;6583;42.632;23.298;2023-05-22T00:20:05;69903.31;;;-146.40;71.40
13033;BME280;6583;42.632;23.298;2023-05-22T00:22:35;69903.31;;;-146.40;71.42
13033;BME280;6583;42.632;23.298;2023-05-22T00:25:02;69915.44;;;-146.40;71.46
13033;BME280;6583;42.632;23.298;2023-05-22T00:27:30;69909.38;;;-146.40;72.04
13033;BME280;6583;42.632;23.298;2023-05-22T00:29:57;69897.25;;;-146.40;71.77
13033;BME280;6583;42.632;23.298;2023-05-22T00:32:24;69895.22;;;-146.40;71.42
13033;BME280;6583;42.632;23.298;2023-05-22T00:34:51;69891.16;;;-146.40;70.86
13033;BME280;6583;42.632;23.298;2023-05-22T00:37:18;69883.06;;;-146.40;71.64
13033;BME280;6583;42.632;23.298;2023-05-22T00:39:45;69887.13;;;-146.40;71.77
13033;BME280;6583;42.632;23.298;2023-05-22T00:42:11;69883.06;;;-146.40;73.00
13033;BME280;6583;42.632;23.298;2023-05-22T00:44:39;69891.16;;;-146.40;73.74
13033;BME280;6583;42.632;23.298;2023-05-22T00:47:07;69887.13;;;-146.40;73.19
13033;BME280;6583;42.632;23.298;2023-05-22T00:49:33;69895.22;;;-146.40;72.90
13033;BME280;6583;42.632;23.298;2023-05-22T00:52:00;69907.34;;;-146.40;73.42
13033;BME280;6583;42.632;23.298;2023-05-22T00:54:30;69917.47;;;-146.40;74.35
13033;BME280;6583;42.632;23.298;2023-05-22T00:56:58;69929.59;;;-146.40;75.04
13033;BME280;6583;42.632;23.298;2023-05-22T00:59:26;69951.84;;;-146.40;75.59
13033;BME280;6583;42.632;23.298;2023-05-22T01:01:54;69959.94;;;-146.40;76.93
13033;BME280;6583;42.632;23.298;2023-05-22T01:04:21;69974.09;;;-146.40;78.14
13033;BME280;6583;42.632;23.298;2023-05-22T01:06:48;69980.19;;;-146.40;78.14
13033;BME280;6583;42.632;23.298;2023-05-22T01:09:15;69986.25;;;-146.40;77.81
13033;BME280;6583;42.632;23.298;2023-05-22T01:11:50;69990.28;;;-146.40;78.47
13033;BME280;6583;42.632;23.298;2023-05-22T01:17:14;69994.34;;;-146.40;79.16
13033;BME280;6583;42.632;23.298;2023-05-22T01:20:00;69994.34;;;-146.40;79.13
13033;BME280;6583;42.632;23.298;2023-05-22T01:22:45;69986.25;;;-146.40;78.34
13033;BME280;6583;42.632;23.298;2023-05-22T01:25:43;69976.13;;;-146.40;77.57
13033;BME280;6583;42.632;23.298;2023-05-22T01:31:10;69964.00;;;-146.40;77.28
13033;BME280;6583;42.632;23.298;2023-05-22T01:33:42;69959.94;;;-146.40;77.40
13033;BME280;6583;42.632;23.298;2023-05-22T01:36:11;69972.09;;;-146.40;77.90
13033;BME280;6583;42.632;23.298;2023-05-22T01:38:40;69978.16;;;-146.40;77.63
13033;BME280;6583;42.632;23.298;2023-05-22T01:41:08;69996.34;;;-146.40;78.28
13033;BME280;6583;42.632;23.298;2023-05-22T01:43:35;70000.41;;;-146.40;78.78
13033;BME280;6583;42.632;23.298;2023-05-22T01:46:02;70000.41;;;-146.40;79.62
13033;BME280;6583;42.632;23.298;2023-05-22T01:48:30;70014.56;;;-146.40;80.46
13033;BME280;6583;42.632;23.298;2023-05-22T01:51:02;70020.63;;;-146.40;80.61
13033;BME280;6583;42.632;23.298;2023-05-22T01:53:36;70026.69;;;-146.40;80.64
13033;BME280;6583;42.632;23.298;2023-05-22T01:56:09;70040.88;;;-146.40;80.14
13033;BME280;6583;42.632;23.298;2023-05-22T01:58:44;70055.03;;;-146.40;80.59
13033;BME280;6583;42.632;23.298;2023-05-22T02:01:15;70079.28;;;-146.40;81.17
13033;BME280;6583;42.632;23.298;2023-05-22T02:03:44;70091.44;;;-146.40;82.43
13033;BME280;6583;42.632;23.298;2023-05-22T02:06:13;70099.53;;;-146.40;83.28
13033;BME280;6583;42.632;23.298;2023-05-22T02:08:41;70109.63;;;-146.40;83.58
13033;BME280;6583;42.632;23.298;2023-05-22T02:11:09;70109.63;;;-146.40;84.62
13033;BME280;6583;42.632;23.298;2023-05-22T02:13:37;70103.56;;;-146.40;85.50
13033;BME280;6583;42.632;23.298;2023-05-22T02:16:04;70093.47;;;-146.40;84.98
13033;BME280;6583;42.632;23.298;2023-05-22T02:18:31;70091.44;;;-146.40;82.63
13033;BME280;6583;42.632;23.298;2023-05-22T02:20:59;70099.53;;;-146.40;82.55
13033;BME280;6583;42.632;23.298;2023-05-22T02:23:27;70101.56;;;-146.40;82.64
13033;BME280;6583;42.632;23.298;2023-05-22T02:25:54;70109.63;;;-146.40;83.30
13033;BME280;6583;42.632;23.298;2023-05-22T02:28:21;70115.72;;;-146.40;83.87
13033;BME280;6583;42.632;23.298;2023-05-22T02:30:48;70117.72;;;-146.40;84.38
13033;BME280;6583;42.632;23.298;2023-05-22T02:33:14;70109.63;;;-146.40;84.78
13033;BME280;6583;42.632;23.298;2023-05-22T02:35:42;70097.50;;;-146.40;84.27
13033;BME280;6583;42.632;23.298;2023-05-22T02:38:10;70081.31;;;-146.40;82.61
13033;BME280;6583;42.632;23.298;2023-05-22T02:40:37;70077.28;;;-146.40;82.20
13033;BME280;6583;42.632;23.298;2023-05-22T02:43:03;70081.31;;;-146.40;81.17
13033;BME280;6583;42.632;23.298;2023-05-22T02:45:30;70081.31;;;-146.40;81.82
13033;BME280;6583;42.632;23.298;2023-05-22T02:47:57;70079.28;;;-146.40;82.12
13033;BME280;6583;42.632;23.298;2023-05-22T02:50:25;70083.34;;;-146.40;81.98
13033;BME280;6583;42.632;23.298;2023-05-22T02:52:52;70075.25;;;-146.40;81.94
13033;BME280;6583;42.632;23.298;2023-05-22T02:55:20;70071.22;;;-146.40;80.06
13033;BME280;6583;42.632;23.298;2023-05-22T02:57:47;70069.19;;;-146.40;80.81
13033;BME280;6583;42.632;23.298;2023-05-22T03:00:14;70071.22;;;-146.40;80.97
13033;BME280;6583;42.632;23.298;2023-05-22T03:02:41;70079.28;;;-146.40;80.40
13033;BME280;6583;42.632;23.298;2023-05-22T03:05:08;70075.25;;;-146.40;80.85
13033;BME280;6583;42.632;23.298;2023-05-22T03:07:34;70075.25;;;-146.40;80.70
13033;BME280;6583;42.632;23.298;2023-05-22T03:10:02;70081.31;;;-146.40;80.92
13033;BME280;6583;42.632;23.298;2023-05-22T03:12:30;70077.28;;;-146.40;79.98
13033;BME280;6583;42.632;23.298;2023-05-22T03:14:57;70079.28;;;-146.40;80.37
13033;BME280;6583;42.632;23.298;2023-05-22T03:17:23;70071.22;;;-146.40;80.56
13033;BME280;6583;42.632;23.298;2023-05-22T03:19:50;70069.19;;;-146.40;81.55
13033;BME280;6583;42.632;23.298;2023-05-22T03:22:16;70067.16;;;-146.40;81.63
13033;BME280;6583;42.632;23.298;2023-05-22T03:24:43;70053.00;;;-146.40;80.75
13033;BME280;6583;42.632;23.298;2023-05-22T03:27:13;70044.91;;;-146.40;80.11
13033;BME280;6583;42.632;23.298;2023-05-22T03:29:42;70044.91;;;-146.40;80.10
13033;BME280;6583;42.632;23.298;2023-05-22T03:32:09;70036.81;;;-146.40;79.75
13033;BME280;6583;42.632;23.298;2023-05-22T03:34:35;70036.81;;;-146.40;78.91
13033;BME280;6583;42.632;23.298;2023-05-22T03:37:02;70036.81;;;-146.40;78.60
13033;BME280;6583;42.632;23.298;2023-05-22T03:39:29;70036.81;;;-146.40;79.36
13033;BME280;6583;42.632;23.298;2023-05-22T03:41:56;70030.75;;;-146.40;80.06
13033;BME280;6583;42.632;23.298;2023-05-22T03:44:23;70022.66;;;-146.40;79.81
13033;BME280;6583;42.632;23.298;2023-05-22T03:46:51;70020.63;;;-146.40;79.60
13033;BME280;6583;42.632;23.298;2023-05-22T03:49:17;70002.44;;;-146.40;79.04
13033;BME280;6583;42.632;23.298;2023-05-22T03:51:44;69996.34;;;-146.40;78.47
13033;BME280;6583;42.632;23.298;2023-05-22T03:54:11;69986.25;;;-146.40;78.84
13033;BME280;6583;42.632;23.298;2023-05-22T03:56:37;69970.06;;;-146.40;78.11
13033;BME280;6583;42.632;23.298;2023-05-22T03:59:04;69966.00;;;-146.40;77.78
13033;BME280;6583;42.632;23.298;2023-05-22T04:01:31;69964.00;;;-146.40;77.60
13033;BME280;6583;42.632;23.298;2023-05-22T04:03:59;69955.91;;;-146.40;77.62
13033;BME280;6583;42.632;23.298;2023-05-22T04:06:26;69957.94;;;-146.40;77.71
13033;BME280;6583;42.632;23.298;2023-05-22T04:08:57;69968.03;;;-146.40;77.63
13033;BME280;6583;42.632;23.298;2023-05-22T04:11:23;69959.94;;;-146.40;77.57
13033;BME280;6583;42.632;23.298;2023-05-22T04:13:50;69966.00;;;-146.40;77.67
13033;BME280;6583;42.632;23.298;2023-05-22T04:16:17;69964.00;;;-146.40;77.46
13033;BME280;6583;42.632;23.298;2023-05-22T04:18:43;69968.03;;;-146.40;78.84
13033;BME280;6583;42.632;23.298;2023-05-22T04:21:11;69968.03;;;-146.40;78.29
13033;BME280;6583;42.632;23.298;2023-05-22T04:23:38;69974.09;;;-146.40;78.66
13033;BME280;6583;42.632;23.298;2023-05-22T04:26:07;69968.03;;;-146.40;79.02
13033;BME280;6583;42.632;23.298;2023-05-22T04:28:34;69964.00;;;-146.40;79.34
13033;BME280;6583;42.632;23.298;2023-05-22T04:31:01;69959.94;;;-146.40;79.64
13033;BME280;6583;42.632;23.298;2023-05-22T04:33:30;69961.97;;;-146.40;80.51
13033;BME280;6583;42.632;23.298;2023-05-22T04:35:58;69951.84;;;-146.40;81.08
13033;BME280;6583;42.632;23.298;2023-05-22T04:38:27;69947.81;;;-146.40;80.13
13033;BME280;6583;42.632;23.298;2023-05-22T04:40:54;69951.84;;;-146.40;79.52
13033;BME280;6583;42.632;23.298;2023-05-22T04:43:21;69943.75;;;-146.40;79.64
13033;BME280;6583;42.632;23.298;2023-05-22T04:45:50;69937.69;;;-146.40;78.95
13033;BME280;6583;42.632;23.298;2023-05-22T04:48:18;69927.59;;;-146.40;79.10
13033;BME280;6583;42.632;23.298;2023-05-22T04:50:45;69923.53;;;-146.40;79.30
13033;BME280;6583;42.632;23.298;2023-05-22T04:53:12;69929.59;;;-146.40;78.22
13033;BME280;6583;42.632;23.298;2023-05-22T04:55:40;69921.50;;;-146.40;75.73
13033;BME280;6583;42.632;23.298;2023-05-22T04:58:07;69899.25;;;-146.40;76.45
13033;BME280;6583;42.632;23.298;2023-05-22T05:00:33;69887.13;;;-146.40;75.85
13033;BME280;6583;42.632;23.298;2023-05-22T05:03:00;69883.06;;;-146.40;75.12
13033;BME280;6583;42.632;23.298;2023-05-22T05:05:27;69866.91;;;-146.40;73.60
13033;BME280;6583;42.632;23.298;2023-05-22T05:07:53;69860.81;;;-146.40;74.92
13033;BME280;6583;42.632;23.298;2023-05-22T05:10:20;69850.72;;;-146.40;74.53
13033;BME280;6583;42.632;23.298;2023-05-22T05:12:48;69838.56;;;-146.40;74.15
13033;BME280;6583;42.632;23.298;2023-05-22T05:15:15;69814.31;;;-146.40;72.63
13033;BME280;6583;42.632;23.298;2023-05-22T05:17:41;69804.19;;;-146.40;73.20
13033;BME280;6583;42.632;23.298;2023-05-22T05:20:09;69794.06;;;-146.40;71.58
13033;BME280;6583;42.632;23.298;2023-05-22T05:22:38;69783.97;;;-146.40;71.23
13033;BME280;6583;42.632;23.298;2023-05-22T05:25:05;69792.06;;;-146.40;67.02
13033;BME280;6583;42.632;23.298;2023-05-22T05:27:32;69792.06;;;-146.40;62.68
13033;BME280;6583;42.632;23.298;2023-05-22T05:30:00;69783.97;;;-146.40;66.48
13033;BME280;6583;42.632;23.298;2023-05-22T05:32:27;69781.94;;;-146.40;65.83
13033;BME280;6583;42.632;23.298;2023-05-22T05:34:54;69773.84;;;-146.40;66.47
13033;BME280;6583;42.632;23.298;2023-05-22T05:37:20;69773.84;;;-146.40;66.30
13033;BME280;6583;42.632;23.298;2023-05-22T05:39:47;69773.84;;;-146.40;66.89
13033;BME280;6583;42.632;23.298;2023-05-22T05:42:14;69785.97;;;-146.40;62.24
13033;BME280;6583;42.632;23.298;2023-05-22T05:44:42;69781.94;;;-146.40;66.89
13033;BME280;6583;42.632;23.298;2023-05-22T05:47:10;69769.81;;;-146.40;66.85
13033;BME280;6583;42.632;23.298;2023-05-22T05:49:36;69767.78;;;-146.40;63.51
13033;BME280;6583;42.632;23.298;2023-05-22T05:52:03;69785.97;;;-146.40;60.70
13033;BME280;6583;42.632;23.298;2023-05-22T05:54:30;69790.03;;;-146.40;60.43
13033;BME280;6583;42.632;23.298;2023-05-22T05:56:57;69798.13;;;-146.40;61.41
13033;BME280;6583;42.632;23.298;2023-05-22T05:59:23;69808.22;;;-146.40;64.45
13033;BME280;6583;42.632;23.298;2023-05-22T06:01:50;69810.25;;;-146.40;66.03
13033;BME280;6583;42.632;23.298;2023-05-22T06:04:18;69800.16;;;-146.40;63.51
13033;BME280;6583;42.632;23.298;2023-05-22T06:06:45;69783.97;;;-146.40;66.62
13033;BME280;6583;42.632;23.298;2023-05-22T06:09:12;69769.81;;;-146.40;65.89
13033;BME280;6583;42.632;23.298;2023-05-22T06:11:38;69751.59;;;-146.40;64.35
13033;BME280;6583;42.632;23.298;2023-05-22T06:14:05;69739.47;;;-146.40;59.37
13033;BME280;6583;42.632;23.298;2023-05-22T06:16:33;69727.31;;;-146.40;57.50
13033;BME280;6583;42.632;23.298;2023-05-22T06:18:59;69713.16;;;-146.40;59.99
13033;BME280;6583;42.632;23.298;2023-05-22T06:21:27;69690.91;;;-146.40;53.89
13033;BME280;6583;42.632;23.298;2023-05-22T06:23:54;69668.66;;;-146.40;57.10
13033;BME280;6583;42.632;23.298;2023-05-22T06:26:21;69670.69;;;-146.40;51.54
13033;BME280;6583;42.632;23.298;2023-05-22T06:28:50;69680.81;;;-146.40;50.66
13033;BME280;6583;42.632;23.298;2023-05-22T06:31:18;69688.88;;;-146.40;51.62
13033;BME280;6583;42.632;23.298;2023-05-22T06:33:44;69690.91;;;-146.40;52.78
13033;BME280;6583;42.632;23.298;2023-05-22T06:36:11;69688.88;;;-146.40;52.72
13033;BME280;6583;42.632;23.298;2023-05-22T06:38:39;69705.06;;;-146.40;48.81
13033;BME280;6583;42.632;23.298;2023-05-22T06:41:06;69705.06;;;-146.40;49.26
13033;BME280;6583;42.632;23.298;2023-05-22T06:43:32;69688.88;;;-146.40;51.64
13033;BME280;6583;42.632;23.298;2023-05-22T06:46:00;69684.84;;;-146.40;48.62
13033;BME280;6583;42.632;23.298;2023-05-22T06:48:26;69670.69;;;-146.40;50.92
13033;BME280;6583;42.632;23.298;2023-05-22T06:50:53;69666.63;;;-146.40;48.15
13033;BME280;6583;42.632;23.298;2023-05-22T06:53:19;69660.56;;;-146.40;48.67
13033;BME280;6583;42.632;23.298;2023-05-22T06:55:49;69666.63;;;-146.40;47.85
13033;BME280;6583;42.632;23.298;2023-05-22T06:58:16;69670.69;;;-146.40;47.43
13033;BME280;6583;42.632;23.298;2023-05-22T07:00:42;69668.66;;;-146.40;49.97
13033;BME280;6583;42.632;23.298;2023-05-22T07:03:09;69666.63;;;-146.40;46.93
13033;BME280;6583;42.632;23.298;2023-05-22T07:05:36;69646.41;;;-146.40;46.68
13033;BME280;6583;42.632;23.298;2023-05-22T07:08:03;69646.41;;;-146.40;47.51
13033;BME280;6583;42.632;23.298;2023-05-22T07:10:30;69646.41;;;-146.40;46.31
13033;BME280;6583;42.632;23.298;2023-05-22T07:12:58;69624.16;;;-146.40;46.10
13033;BME280;6583;42.632;23.298;2023-05-22T07:15:25;69597.88;;;-146.40;46.72
13033;BME280;6583;42.632;23.298;2023-05-22T07:17:51;69583.72;;;-146.40;46.01
13033;BME280;6583;42.632;23.298;2023-05-22T07:20:18;69575.63;;;-146.40;42.43
13033;BME280;6583;42.632;23.298;2023-05-22T07:22:45;69567.53;;;-146.40;43.62
13033;BME280;6583;42.632;23.298;2023-05-22T07:25:12;69551.34;;;-146.40;43.23
13033;BME280;6583;42.632;23.298;2023-05-22T07:27:38;69533.16;;;-146.40;43.72
13033;BME280;6583;42.632;23.298;2023-05-22T07:30:08;69541.25;;;-146.40;43.77
13033;BME280;6583;42.632;23.298;2023-05-22T07:32:34;69555.41;;;-146.40;44.06
13033;BME280;6583;42.632;23.298;2023-05-22T07:35:01;69543.25;;;-146.40;44.59
13033;BME280;6583;42.632;23.298;2023-05-22T07:37:28;69549.31;;;-146.40;43.97
13033;BME280;6583;42.632;23.298;2023-05-22T07:39:56;69547.31;;;-146.40;43.50
13033;BME280;6583;42.632;23.298;2023-05-22T07:42:22;69545.28;;;-146.40;45.11
13033;BME280;6583;42.632;23.298;2023-05-22T07:44:50;69555.41;;;-146.40;43.37
13033;BME280;6583;42.632;23.298;2023-05-22T07:47:18;69545.28;;;-146.40;44.91
13033;BME280;6583;42.632;23.298;2023-05-22T07:49:45;69541.25;;;-146.40;44.29
13033;BME280;6583;42.632;23.298;2023-05-22T07:52:11;69525.06;;;-146.40;45.86
13033;BME280;6583;42.632;23.298;2023-05-22T07:54:38;69510.91;;;-146.40;42.96
13033;BME280;6583;42.632;23.298;2023-05-22T07:57:05;69510.91;;;-146.40;45.70
13033;BME280;6583;42.632;23.298;2023-05-22T07:59:32;69516.97;;;-146.40;44.30
13033;BME280;6583;42.632;23.298;2023-05-22T08:02:00;69531.13;;;-146.40;47.71
13033;BME280;6583;42.632;23.298;2023-05-22T08:04:28;69523.03;;;-146.40;46.67
13033;BME280;6583;42.632;23.298;2023-05-22T08:06:55;69549.31;;;-146.40;46.00
13033;BME280;6583;42.632;23.298;2023-05-22T08:09:22;69555.41;;;-146.40;47.48
13033;BME280;6583;42.632;23.298;2023-05-22T08:11:48;69549.31;;;-146.40;46.60
13033;BME280;6583;42.632;23.298;2023-05-22T08:33:43;69341.00;;;-146.40;40.07
13033;BME280;6583;42.632;23.298;2023-05-22T08:36:10;69375.38;;;-146.40;40.46
13033;BME280;6583;42.632;23.298;2023-05-22T08:38:37;69405.72;;;-146.40;40.64
13033;BME280;6583;42.632;23.298;2023-05-22T08:41:05;69411.78;;;-146.40;41.10
13033;BME280;6583;42.632;23.298;2023-05-22T08:43:33;69417.84;;;-146.40;40.93
13033;BME280;6583;42.632;23.298;2023-05-22T08:46:03;69403.69;;;-146.40;42.06
13033;BME280;6583;42.632;23.298;2023-05-22T08:48:31;69379.44;;;-146.40;40.90
13033;BME280;6583;42.632;23.298;2023-05-22T08:51:02;69375.38;;;-146.40;41.64
13033;BME280;6583;42.632;23.298;2023-05-22T08:53:33;69365.28;;;-146.40;42.15
13033;BME280;6583;42.632;23.298;2023-05-22T08:56:01;69349.09;;;-146.40;41.19
13033;BME280;6583;42.632;23.298;2023-05-22T08:58:28;69332.91;;;-146.40;40.27
13033;BME280;6583;42.632;23.298;2023-05-22T09:00:54;69332.91;;;-146.40;40.06
13033;BME280;6583;42.632;23.298;2023-05-22T09:03:22;69336.97;;;-146.40;38.90
13033;BME280;6583;42.632;23.298;2023-05-22T09:05:53;69353.13;;;-146.40;41.17
13033;BME280;6583;42.632;23.298;2023-05-22T09:08:21;69369.31;;;-146.40;37.47
13033;BME280;6583;42.632;23.298;2023-05-22T09:10:48;69349.09;;;-146.40;37.36
13033;BME280;6583;42.632;23.298;2023-05-22T09:13:23;69320.78;;;-146.40;36.03
13033;BME280;6583;42.632;23.298;2023-05-22T09:15:50;69298.53;;;-146.40;36.35
13033;BME280;6583;42.632;23.298;2023-05-22T09:18:17;69278.31;;;-146.40;36.59
13033;BME280;6583;42.632;23.298;2023-05-22T09:20:44;69268.19;;;-146.40;36.00
13033;BME280;6583;42.632;23.298;2023-05-22T09:23:11;69247.97;;;-146.40;36.78
13033;BME280;6583;42.632;23.298;2023-05-22T09:25:41;69250.00;;;-146.40;35.04
13033;BME280;6583;42.632;23.298;2023-05-22T09:28:09;69256.06;;;-146.40;35.84
13033;BME280;6583;42.632;23.298;2023-05-22T09:30:36;69260.09;;;-146.40;35.92
13033;BME280;6583;42.632;23.298;2023-05-22T09:33:03;69254.03;;;-146.40;36.34
13033;BME280;6583;42.632;23.298;2023-05-22T09:35:31;69278.31;;;-146.40;34.08
13033;BME280;6583;42.632;23.298;2023-05-22T09:37:58;69282.34;;;-146.40;34.11
13033;BME280;6583;42.632;23.298;2023-05-22T09:40:26;69296.50;;;-146.40;34.45
13033;BME280;6583;42.632;23.298;2023-05-22T09:42:54;69296.50;;;-146.40;35.25
13033;BME280;6583;42.632;23.298;2023-05-22T09:45:21;69304.59;;;-146.40;35.67
13033;BME280;6583;42.632;23.298;2023-05-22T09:47:48;69322.78;;;-146.40;34.53
13033;BME280;6583;42.632;23.298;2023-05-22T09:50:16;69345.03;;;-146.40;36.11
13033;BME280;6583;42.632;23.298;2023-05-22T09:52:44;69369.31;;;-146.40;35.31
13033;BME280;6583;42.632;23.298;2023-05-22T09:55:12;69385.50;;;-146.40;35.39
13033;BME280;6583;42.632;23.298;2023-05-22T09:57:41;69399.66;;;-146.40;35.49
13033;BME280;6583;42.632;23.298;2023-05-22T10:00:13;69421.91;;;-146.40;36.19
13033;BME280;6583;42.632;23.298;2023-05-22T10:02:44;69438.09;;;-146.40;36.90
13033;BME280;6583;42.632;23.298;2023-05-22T10:05:11;69436.06;;;-146.40;37.46
13033;BME280;6583;42.632;23.298;2023-05-22T10:07:46;69430.00;;;-146.40;37.54
13033;BME280;6583;42.632;23.298;2023-05-22T10:10:16;69425.94;;;-146.40;37.78
13033;BME280;6583;42.632;23.298;2023-05-22T10:12:48;69421.91;;;-146.40;37.30
13033;BME280;6583;42.632;23.298;2023-05-22T10:15:17;69419.88;;;-146.40;36.48
13033;BME280;6583;42.632;23.298;2023-05-22T10:17:44;69417.84;;;-146.40;35.76
13033;BME280;6583;42.632;23.298;2023-05-22T10:20:13;69417.84;;;-146.40;36.74
13033;BME280;6583;42.632;23.298;2023-05-22T10:22:40;69419.88;;;-146.40;36.33
13033;BME280;6583;42.632;23.298;2023-05-22T10:25:08;69413.81;;;-146.40;37.26
13033;BME280;6583;42.632;23.298;2023-05-22T10:27:35;69401.69;;;-146.40;36.77
13033;BME280;6583;42.632;23.298;2023-05-22T10:30:15;69395.59;;;-146.40;37.17
13033;BME280;6583;42.632;23.298;2023-05-22T10:32:47;69377.41;;;-146.40;37.74
13033;BME280;6583;42.632;23.298;2023-05-22T10:35:19;69373.38;;;-146.40;37.51
13033;BME280;6583;42.632;23.298;2023-05-22T10:37:49;69377.41;;;-146.40;41.16
13033;BME280;6583;42.632;23.298;2023-05-22T10:40:21;69399.66;;;-146.40;42.58
13033;BME280;6583;42.632;23.298;2023-05-22T10:42:56;69417.84;;;-146.40;43.24
13033;BME280;6583;42.632;23.298;2023-05-22T10:45:25;69448.19;;;-146.40;47.50
13033;BME280;6583;42.632;23.298;2023-05-22T10:48:02;69460.34;;;-146.40;51.01
13033;BME280;6583;42.632;23.298;2023-05-22T10:50:29;69484.59;;;-146.40;51.28
13033;BME280;6583;42.632;23.298;2023-05-22T10:53:17;69529.09;;;-146.40;51.88
13033;BME280;6583;42.632;23.298;2023-05-22T10:55:49;69555.41;;;-146.40;52.07
13033;BME280;6583;42.632;23.298;2023-05-22T10:58:15;69563.47;;;-146.40;54.53
13033;BME280;6583;42.632;23.298;2023-05-22T11:00:42;69551.34;;;-146.40;56.73
13033;BME280;6583;42.632;23.298;2023-05-22T11:03:11;69529.09;;;-146.40;55.73
13033;BME280;6583;42.632;23.298;2023-05-22T11:05:37;69521.00;;;-146.40;54.14
13033;BME280;6583;42.632;23.298;2023-05-22T11:08:09;69514.94;;;-146.40;53.85
13033;BME280;6583;42.632;23.298;2023-05-22T11:10:52;69502.81;;;-146.40;54.24
13033;BME280;6583;42.632;23.298;2023-05-22T11:13:19;69494.72;;;-146.40;54.61
13033;BME280;6583;42.632;23.298;2023-05-22T11:15:45;69486.63;;;-146.40;53.37
13033;BME280;6583;42.632;23.298;2023-05-22T11:18:15;69486.63;;;-146.40;52.14
13033;BME280;6583;42.632;23.298;2023-05-22T11:20:42;69492.69;;;-146.40;52.76
13033;BME280;6583;42.632;23.298;2023-05-22T11:23:09;69502.81;;;-146.40;50.70
13033;BME280;6583;42.632;23.298;2023-05-22T11:25:38;69502.81;;;-146.40;50.45
13033;BME280;6583;42.632;23.298;2023-05-22T11:28:05;69510.91;;;-146.40;51.28
13033;BME280;6583;42.632;23.298;2023-05-22T11:30:34;69506.84;;;-146.40;55.21
13033;BME280;6583;42.632;23.298;2023-05-22T11:33:03;69541.25;;;-146.40;62.51
13033;BME280;6583;42.632;23.298;2023-05-22T11:35:31;69581.69;;;-146.40;67.02
13033;BME280;6583;42.632;23.298;2023-05-22T11:37:58;69612.03;;;-146.40;67.39
13033;BME280;6583;42.632;23.298;2023-05-22T11:40:26;69648.44;;;-146.40;72.50
13033;BME280;6583;42.632;23.298;2023-05-22T11:42:53;69682.81;;;-146.40;72.19
13033;BME280;6583;42.632;23.298;2023-05-22T11:45:21;69715.19;;;-146.40;75.56
13033;BME280;6583;42.632;23.298;2023-05-22T11:47:48;69733.38;;;-146.40;77.20
13033;BME280;6583;42.632;23.298;2023-05-22T11:50:14;69745.53;;;-146.40;78.15
13033;BME280;6583;42.632;23.298;2023-05-22T11:52:43;69763.72;;;-146.40;79.08
13033;BME280;6583;42.632;23.298;2023-05-22T11:55:10;69794.06;;;-146.40;78.08
13033;BME280;6583;42.632;23.298;2023-05-22T11:57:37;69828.47;;;-146.40;77.13
13033;BME280;6583;42.632;23.298;2023-05-22T12:00:05;69838.56;;;-146.40;74.79
13033;BME280;6583;42.632;23.298;2023-05-22T12:02:32;69838.56;;;-146.40;75.92
13033;BME280;6583;42.632;23.298;2023-05-22T12:04:59;69838.56;;;-146.40;79.88
13033;BME280;6583;42.632;23.298;2023-05-22T12:07:26;69856.78;;;-146.40;80.50
13033;BME280;6583;42.632;23.298;2023-05-22T12:09:56;69868.91;;;-146.40;82.71
13033;BME280;6583;42.632;23.298;2023-05-22T12:12:23;69879.03;;;-146.40;82.40
13033;BME280;6583;42.632;23.298;2023-05-22T12:14:50;69879.03;;;-146.40;81.97
13033;BME280;6583;42.632;23.298;2023-05-22T12:17:17;69891.16;;;-146.40;81.92
13033;BME280;6583;42.632;23.298;2023-05-22T12:19:44;69891.16;;;-146.40;82.70
13033;BME280;6583;42.632;23.298;2023-05-22T12:22:11;69903.31;;;-146.40;82.33
13033;BME280;6583;42.632;23.298;2023-05-22T12:24:39;69899.25;;;-146.40;84.09
13033;BME280;6583;42.632;23.298;2023-05-22T12:27:08;69895.22;;;-146.40;85.16
13033;BME280;6583;42.632;23.298;2023-05-22T12:29:35;69891.16;;;-146.40;85.16
13033;BME280;6583;42.632;23.298;2023-05-22T12:32:06;69891.16;;;-146.40;85.04
13033;BME280;6583;42.632;23.298;2023-05-22T12:34:35;69891.16;;;-146.40;84.62
13033;BME280;6583;42.632;23.298;2023-05-22T12:37:17;69870.94;;;-146.40;86.19
13033;BME280;6583;42.632;23.298;2023-05-22T12:39:52;69870.94;;;-146.40;85.53
13033;BME280;6583;42.632;23.298;2023-05-22T12:42:20;69856.78;;;-146.40;86.44
13033;BME280;6583;42.632;23.298;2023-05-22T12:44:47;69836.56;;;-146.40;87.10
13033;BME280;6583;42.632;23.298;2023-05-22T12:47:14;69826.44;;;-146.40;84.57
13033;BME280;6583;42.632;23.298;2023-05-22T12:49:41;69808.22;;;-146.40;85.77
13033;BME280;6583;42.632;23.298;2023-05-22T12:52:08;69788.00;;;-146.40;85.87
13033;BME280;6583;42.632;23.298;2023-05-22T12:54:34;69777.91;;;-146.40;79.91
13033;BME280;6583;42.632;23.298;2023-05-22T12:57:01;69765.75;;;-146.40;76.39
13033;BME280;6583;42.632;23.298;2023-05-22T12:59:29;69751.59;;;-146.40;81.56
13033;BME280;6583;42.632;23.298;2023-05-22T13:01:57;69753.63;;;-146.40;76.91
13033;BME280;6583;42.632;23.298;2023-05-22T13:04:26;69751.59;;;-146.40;72.65
13033;BME280;6583;42.632;23.298;2023-05-22T13:06:53;69731.38;;;-146.40;77.63
13033;BME280;6583;42.632;23.298;2023-05-22T13:09:19;69725.31;;;-146.40;73.31